Terminal Aerodrome Forecast
Issued by NWS

Home | Current Version | Previous Version | Text Only | Print | Product List | Glossary On
Versions: 1 2 3 4 5 6 7 8 9 10 11 12 13 14 15 16 17 18 19 20
955
FTUS41 KBGM 021721
TAFELM
TAF
KELM 021721Z 0218/0318 26012G21KT P6SM OVC035
     FM030100 28010KT P6SM OVC050
     FM030600 29010KT P6SM OVC025
     FM031200 31010KT P6SM OVC035
     FM031400 30011G18KT P6SM OVC050=

USA.gov is the U.S. government's official web portal to all federal, state and local government web resources and services.